createdAt,value
2022-08-08T00:00:53.362Z,6.58
2022-08-08T00:00:57.727Z,6.70
2022-08-08T00:02:04.091Z,6.23
2022-08-08T00:02:49.551Z,7.11
2022-08-08T00:03:49.670Z,7.14
2022-08-08T00:04:53.219Z,6.84
2022-08-08T00:06:03.325Z,6.66
2022-08-08T00:06:52.727Z,7.44
2022-08-08T00:07:49.569Z,6.76
2022-08-08T00:09:52.330Z,7.14
2022-08-08T00:10:49.741Z,6.76
2022-08-08T00:12:07.730Z,7.13
2022-08-08T00:12:56.336Z,6.97
2022-08-08T00:14:17.549Z,6.91
2022-08-08T00:14:59.153Z,6.73
2022-08-08T00:15:56.955Z,7.31
2022-08-08T00:16:49.593Z,6.52
2022-08-08T00:18:49.619Z,6.48
2022-08-08T00:19:51.448Z,6.49
2022-08-08T00:20:49.899Z,6.79
2022-08-08T00:21:49.635Z,7.25
2022-08-08T00:22:49.615Z,7.47
2022-08-08T00:23:51.411Z,7.55
2022-08-08T00:24:49.648Z,7.20
2022-08-08T00:25:50.871Z,7.68
2022-08-08T00:26:49.643Z,6.96
2022-08-08T00:27:49.620Z,6.86
2022-08-08T00:28:49.637Z,6.98
2022-08-08T00:29:49.650Z,7.45
2022-08-08T00:31:00.209Z,7.58
2022-08-08T00:32:16.359Z,6.96
2022-08-08T00:32:49.675Z,6.82
2022-08-08T00:34:17.518Z,6.75
2022-08-08T00:34:49.645Z,6.99
2022-08-08T00:35:49.644Z,6.63
2022-08-08T00:36:51.504Z,7.63
2022-08-08T00:38:01.259Z,7.72
2022-08-08T00:38:54.499Z,6.60
2022-08-08T00:41:10.697Z,7.57
2022-08-08T00:41:11.040Z,6.71
2022-08-08T00:42:07.706Z,7.02
2022-08-08T00:42:49.722Z,6.80
2022-08-08T00:43:59.156Z,7.71
2022-08-08T00:45:49.661Z,7.23
2022-08-08T00:46:56.851Z,7.61
2022-08-08T00:48:05.559Z,7.15
2022-08-08T00:48:50.078Z,6.76
2022-08-08T00:49:50.410Z,6.69
2022-08-08T00:50:52.339Z,6.88
2022-08-08T00:51:51.711Z,7.03
2022-08-08T00:54:04.502Z,7.33
2022-08-08T00:54:49.688Z,7.04
2022-08-08T00:55:53.681Z,7.23
2022-08-08T00:56:49.689Z,7.00
2022-08-08T00:57:57.995Z,6.83
2022-08-08T00:59:49.707Z,7.04
2022-08-08T01:00:50.443Z,6.37
2022-08-08T01:01:49.808Z,7.69
2022-08-08T01:03:59.552Z,7.70
2022-08-08T01:04:02.644Z,7.43
2022-08-08T01:04:49.713Z,7.54
2022-08-08T01:05:58.586Z,7.58
2022-08-08T01:06:49.729Z,7.87
2022-08-08T01:07:55.914Z,7.40
2022-08-08T01:08:50.293Z,8.04
2022-08-08T01:09:49.732Z,6.83
2022-08-08T01:10:50.893Z,7.01
2022-08-08T01:12:49.754Z,6.74
2022-08-08T01:13:52.775Z,6.64
2022-08-08T01:14:54.401Z,8.03
2022-08-08T01:15:54.152Z,7.22
2022-08-08T01:16:49.740Z,7.02
2022-08-08T01:17:53.093Z,7.13
2022-08-08T01:18:53.418Z,6.91
2022-08-08T01:20:02.883Z,7.24
2022-08-08T01:20:53.202Z,7.74
2022-08-08T01:22:13.504Z,6.77
2022-08-08T01:22:50.487Z,6.10
2022-08-08T01:24:06.074Z,6.73
2022-08-08T01:24:50.678Z,6.99
2022-08-08T01:26:49.776Z,7.22
2022-08-08T01:28:51.293Z,7.08
2022-08-08T01:30:53.493Z,7.38
2022-08-08T01:32:06.368Z,7.12
2022-08-08T01:32:51.795Z,7.62
2022-08-08T01:34:00.303Z,7.30
2022-08-08T01:34:49.795Z,7.18
2022-08-08T01:35:49.786Z,6.44
2022-08-08T01:36:50.623Z,7.47
2022-08-08T01:37:58.418Z,7.14
2022-08-08T01:38:49.815Z,7.47
2022-08-08T01:39:49.826Z,6.89
2022-08-08T01:40:49.806Z,7.12
2022-08-08T01:41:49.806Z,6.91
2022-08-08T01:42:49.821Z,7.12
2022-08-08T01:43:50.903Z,7.59
2022-08-08T01:44:50.384Z,7.00
2022-08-08T01:45:50.369Z,7.51
2022-08-08T01:46:52.263Z,7.65
2022-08-08T01:48:13.939Z,7.33
2022-08-08T01:49:53.599Z,7.37
2022-08-08T01:50:50.858Z,6.37
2022-08-08T01:52:41.929Z,7.76
2022-08-08T01:54:07.172Z,7.29
2022-08-08T01:55:18.788Z,6.23
2022-08-08T01:56:27.134Z,7.40
2022-08-08T01:56:49.867Z,7.29
2022-08-08T01:58:11.312Z,7.00
2022-08-08T01:58:49.868Z,6.83
2022-08-08T02:00:02.458Z,7.34
2022-08-08T02:00:49.863Z,7.07
2022-08-08T02:02:00.466Z,7.57
2022-08-08T02:02:49.914Z,7.57
2022-08-08T02:03:57.754Z,7.22
2022-08-08T02:05:56.434Z,7.10
2022-08-08T02:06:49.873Z,7.47
2022-08-08T02:07:49.877Z,8.11
2022-08-08T02:08:49.920Z,6.98
2022-08-08T02:10:04.187Z,7.16
2022-08-08T02:10:49.869Z,7.54
2022-08-08T02:11:52.865Z,7.40
2022-08-08T02:12:49.889Z,6.95
2022-08-08T02:13:54.850Z,6.86
2022-08-08T02:14:58.854Z,7.45
2022-08-08T02:15:49.908Z,6.36
2022-08-08T02:16:49.905Z,7.07
2022-08-08T02:17:50.449Z,6.55
2022-08-08T02:18:49.917Z,7.17
2022-08-08T02:20:08.467Z,6.53
2022-08-08T02:21:49.917Z,6.56
2022-08-08T02:22:54.820Z,7.29
2022-08-08T02:23:49.917Z,6.73
2022-08-08T02:24:49.908Z,6.62
2022-08-08T02:25:49.923Z,6.53
2022-08-08T02:26:49.935Z,6.68
2022-08-08T02:27:49.917Z,7.23
2022-08-08T02:29:52.682Z,7.66
2022-08-08T02:30:58.277Z,6.60
2022-08-08T02:32:00.551Z,7.36
2022-08-08T02:32:49.955Z,6.02
2022-08-08T02:34:08.542Z,6.45
2022-08-08T02:36:04.448Z,6.86
2022-08-08T02:36:50.007Z,8.08
2022-08-08T02:37:52.816Z,7.21
2022-08-08T02:38:50.646Z,6.99
2022-08-08T02:39:59.862Z,7.22
2022-08-08T02:40:50.504Z,7.54
2022-08-08T02:42:04.285Z,7.12
2022-08-08T02:44:35.888Z,6.40
2022-08-08T02:44:45.080Z,6.10
2022-08-08T02:44:57.925Z,6.39
2022-08-08T02:45:54.375Z,6.51
2022-08-08T02:47:51.977Z,6.62
2022-08-08T02:48:49.993Z,7.18
2022-08-08T02:49:51.453Z,6.70
2022-08-08T02:50:55.681Z,6.88
2022-08-08T02:51:56.432Z,6.73
2022-08-08T02:52:50.747Z,6.74
2022-08-08T02:53:50.790Z,6.78
2022-08-08T02:54:50.386Z,7.22
2022-08-08T02:55:59.747Z,7.17
2022-08-08T02:56:50.834Z,6.91
2022-08-08T02:57:51.268Z,6.51
2022-08-08T02:58:50.007Z,6.07
2022-08-08T02:59:57.631Z,6.54
2022-08-08T03:00:50.906Z,6.42
2022-08-08T03:01:50.755Z,6.78
2022-08-08T03:02:50.621Z,6.53
2022-08-08T03:05:05.089Z,6.19
2022-08-08T03:05:05.295Z,6.05
2022-08-08T03:05:51.381Z,5.79
2022-08-08T03:06:50.035Z,5.96
2022-08-08T03:07:58.109Z,6.17
2022-08-08T03:08:51.741Z,5.53
2022-08-08T03:09:50.021Z,6.26
2022-08-08T03:10:53.608Z,6.32
2022-08-08T03:12:03.072Z,6.35
2022-08-08T03:13:01.498Z,6.67
2022-08-08T03:15:57.992Z,6.32
2022-08-08T03:15:59.074Z,6.71
2022-08-08T03:16:00.414Z,6.90
2022-08-08T03:16:50.051Z,5.60
2022-08-08T03:17:52.274Z,6.30
2022-08-08T03:18:50.051Z,6.08
2022-08-08T03:19:51.063Z,6.82
2022-08-08T03:20:51.465Z,5.83
2022-08-08T03:21:58.884Z,6.44
2022-08-08T03:22:56.489Z,6.25
2022-08-08T03:23:59.600Z,6.34
2022-08-08T03:24:50.080Z,6.87
2022-08-08T03:25:50.956Z,6.07
2022-08-08T03:26:50.083Z,6.62
2022-08-08T03:27:56.323Z,6.90
2022-08-08T03:28:51.128Z,6.23
2022-08-08T03:29:55.650Z,6.27
2022-08-08T03:31:07.449Z,5.18
2022-08-08T03:32:06.660Z,6.01
2022-08-08T03:32:58.600Z,6.11
2022-08-08T03:33:55.355Z,6.27
2022-08-08T03:34:50.098Z,5.94
2022-08-08T03:35:50.103Z,5.51
2022-08-08T03:36:50.093Z,6.54
2022-08-08T03:37:59.377Z,6.62
2022-08-08T03:38:58.198Z,6.51
2022-08-08T03:39:51.547Z,5.43
2022-08-08T03:40:51.954Z,6.49
2022-08-08T03:42:26.958Z,6.36
2022-08-08T03:42:50.117Z,6.52
2022-08-08T03:43:50.120Z,6.89
2022-08-08T03:44:52.030Z,6.13
2022-08-08T03:46:02.969Z,7.12
2022-08-08T03:46:50.142Z,6.88
2022-08-08T03:47:54.050Z,7.23
2022-08-08T03:49:58.196Z,7.22
2022-08-08T03:50:00.128Z,6.73
2022-08-08T03:50:50.133Z,6.56
2022-08-08T03:52:50.156Z,6.22
2022-08-08T03:53:50.136Z,6.17
2022-08-08T03:55:02.427Z,6.80
2022-08-08T03:55:55.832Z,7.46
2022-08-08T03:56:50.172Z,7.43
2022-08-08T03:58:33.577Z,7.01
2022-08-08T03:58:50.182Z,7.74
2022-08-08T03:59:57.332Z,7.78
2022-08-08T04:01:01.469Z,7.36
2022-08-08T04:02:12.947Z,7.22
2022-08-08T04:02:52.158Z,6.50
2022-08-08T04:03:59.183Z,7.19
2022-08-08T04:04:50.208Z,6.50
2022-08-08T04:05:50.360Z,6.81
2022-08-08T04:06:50.213Z,6.98
2022-08-08T04:07:50.862Z,6.57
2022-08-08T04:08:50.184Z,6.56
2022-08-08T04:11:58.773Z,7.49
2022-08-08T04:12:50.216Z,6.55
2022-08-08T04:14:03.987Z,7.05
2022-08-08T04:14:50.695Z,7.13
2022-08-08T04:16:03.335Z,6.59
2022-08-08T04:17:59.383Z,7.25
2022-08-08T04:18:50.222Z,7.48
2022-08-08T04:19:50.225Z,6.92
2022-08-08T04:20:50.227Z,6.88
2022-08-08T04:21:50.240Z,8.30
2022-08-08T04:22:51.577Z,7.20
2022-08-08T04:24:05.207Z,7.25
2022-08-08T04:24:50.430Z,6.88
2022-08-08T04:25:54.269Z,7.36
2022-08-08T04:26:57.561Z,6.77
2022-08-08T04:28:50.343Z,6.76
2022-08-08T04:29:55.235Z,6.93
2022-08-08T04:30:50.263Z,6.72
2022-08-08T04:31:59.743Z,7.00
2022-08-08T04:33:50.314Z,6.89
2022-08-08T04:34:58.338Z,6.97
2022-08-08T04:35:51.024Z,6.67
2022-08-08T04:36:50.261Z,7.02
2022-08-08T04:37:50.261Z,7.56
2022-08-08T04:39:20.345Z,7.47
2022-08-08T04:40:06.412Z,6.54
2022-08-08T04:40:53.713Z,7.40
2022-08-08T04:42:57.349Z,7.13
2022-08-08T04:43:54.281Z,7.26
2022-08-08T04:44:50.273Z,6.73
2022-08-08T04:45:50.306Z,6.79
2022-08-08T04:46:52.347Z,7.18
2022-08-08T04:47:50.295Z,7.43
2022-08-08T04:48:50.273Z,7.39
2022-08-08T04:49:58.745Z,7.37
2022-08-08T04:50:50.468Z,7.19
2022-08-08T04:51:57.044Z,7.09
2022-08-08T04:53:00.527Z,8.01
2022-08-08T04:54:27.412Z,6.97
2022-08-08T04:54:50.475Z,7.23
2022-08-08T04:55:55.920Z,7.24
2022-08-08T04:56:50.295Z,6.87
2022-08-08T04:57:50.317Z,7.93
2022-08-08T04:58:50.843Z,8.23
2022-08-08T04:59:50.313Z,7.03
2022-08-08T05:00:50.321Z,7.86
2022-08-08T05:01:50.350Z,7.56
2022-08-08T05:02:54.584Z,7.56
2022-08-08T05:04:11.317Z,8.48
2022-08-08T05:04:50.328Z,7.59
2022-08-08T05:05:53.484Z,6.95
2022-08-08T05:06:50.607Z,7.35
2022-08-08T05:07:50.339Z,7.95
2022-08-08T05:08:51.349Z,7.58
2022-08-08T05:09:50.337Z,7.37
2022-08-08T05:10:50.342Z,7.84
2022-08-08T05:11:57.165Z,8.62
2022-08-08T05:13:00.107Z,8.44
2022-08-08T05:13:54.834Z,8.51
2022-08-08T05:14:52.271Z,8.78
2022-08-08T05:16:51.536Z,8.01
2022-08-08T05:17:00.377Z,7.60
2022-08-08T05:17:54.602Z,7.69
2022-08-08T05:18:50.363Z,8.46
2022-08-08T05:20:12.119Z,8.11
2022-08-08T05:20:52.242Z,8.30
2022-08-08T05:21:58.025Z,8.38
2022-08-08T05:22:50.371Z,8.12
2022-08-08T05:23:50.383Z,8.48
2022-08-08T05:24:50.395Z,7.81
2022-08-08T05:25:50.374Z,7.87
2022-08-08T05:26:50.378Z,8.16
2022-08-08T05:27:50.388Z,7.64
2022-08-08T05:28:57.228Z,7.73
2022-08-08T05:29:52.287Z,6.69
2022-08-08T05:30:50.407Z,7.07
2022-08-08T05:32:04.522Z,6.96
2022-08-08T05:32:51.001Z,7.27
2022-08-08T05:33:50.457Z,7.51
2022-08-08T05:34:50.418Z,7.44
2022-08-08T05:35:53.989Z,7.58
2022-08-08T05:36:50.421Z,6.72
2022-08-08T05:37:53.051Z,7.35
2022-08-08T05:38:50.415Z,7.38
2022-08-08T05:39:54.754Z,6.88
2022-08-08T05:40:54.448Z,6.52
2022-08-08T05:41:54.899Z,6.80
2022-08-08T05:42:50.430Z,6.47
2022-08-08T05:44:51.580Z,6.63
2022-08-08T05:45:54.911Z,6.70
2022-08-08T05:46:50.434Z,6.65
2022-08-08T05:48:00.014Z,6.77
2022-08-08T05:48:52.486Z,6.59
2022-08-08T05:49:55.981Z,7.50
2022-08-08T05:50:50.444Z,7.30
2022-08-08T05:51:50.464Z,6.49
2022-08-08T05:52:50.445Z,6.70
2022-08-08T05:54:24.350Z,6.50
2022-08-08T05:54:53.565Z,6.69
2022-08-08T05:56:09.802Z,6.88
2022-08-08T05:56:50.475Z,6.59
2022-08-08T05:58:05.976Z,6.66
2022-08-08T05:58:56.883Z,5.93
2022-08-08T06:00:00.822Z,6.07
2022-08-08T06:00:56.819Z,7.13
2022-08-08T06:01:51.186Z,7.24
2022-08-08T06:02:50.543Z,7.09
2022-08-08T06:03:53.604Z,5.66
2022-08-08T06:04:54.564Z,6.83
2022-08-08T06:05:51.844Z,6.13
2022-08-08T06:06:50.556Z,6.94
2022-08-08T06:07:50.492Z,6.73
2022-08-08T06:08:54.731Z,6.01
2022-08-08T06:10:00.900Z,5.50
2022-08-08T06:10:50.492Z,6.00
2022-08-08T06:11:50.501Z,5.87
2022-08-08T06:12:50.492Z,6.28
2022-08-08T06:13:50.511Z,6.23
2022-08-08T06:14:50.502Z,6.20
2022-08-08T06:15:53.960Z,6.07
2022-08-08T06:16:54.910Z,6.57
2022-08-08T06:18:20.628Z,6.34
2022-08-08T06:18:50.505Z,6.28
2022-08-08T06:19:50.518Z,6.81
2022-08-08T06:20:50.518Z,6.03
2022-08-08T06:21:56.677Z,6.43
2022-08-08T06:22:50.569Z,6.67
2022-08-08T06:24:03.626Z,5.75
2022-08-08T06:24:51.285Z,6.81
2022-08-08T06:26:38.799Z,5.91
2022-08-08T06:27:50.554Z,6.54
2022-08-08T06:28:50.544Z,6.16
2022-08-08T06:30:00.890Z,5.98
2022-08-08T06:31:52.521Z,6.33
2022-08-08T06:32:52.692Z,6.45
2022-08-08T06:34:25.742Z,6.16
2022-08-08T06:34:56.703Z,6.52
2022-08-08T06:36:09.425Z,5.99
2022-08-08T06:37:51.043Z,6.16
2022-08-08T06:38:50.573Z,6.77
2022-08-08T06:39:56.278Z,6.28
2022-08-08T06:40:53.631Z,5.97
2022-08-08T06:41:50.592Z,6.43
2022-08-08T06:42:50.579Z,5.62
2022-08-08T06:43:57.240Z,5.84
2022-08-08T06:44:50.575Z,5.55
2022-08-08T06:45:50.577Z,5.55
2022-08-08T06:46:50.600Z,5.32
2022-08-08T06:47:52.422Z,6.20
2022-08-08T06:48:50.600Z,6.63
2022-08-08T06:49:56.459Z,6.53
2022-08-08T06:50:52.103Z,6.15
2022-08-08T06:51:57.806Z,5.78
2022-08-08T06:52:50.667Z,5.68
2022-08-08T06:53:56.488Z,5.38
2022-08-08T06:54:50.606Z,5.94
2022-08-08T06:56:02.071Z,5.68
2022-08-08T06:56:51.317Z,6.39
2022-08-08T06:57:56.195Z,6.17
2022-08-08T06:58:50.623Z,5.72
2022-08-08T07:00:10.438Z,6.12
2022-08-08T07:00:50.633Z,7.08
2022-08-08T07:02:21.252Z,5.50
2022-08-08T07:02:50.679Z,5.91
2022-08-08T07:04:37.756Z,5.62
2022-08-08T07:04:51.763Z,5.55
2022-08-08T07:06:02.460Z,5.53
2022-08-08T07:06:51.218Z,5.78
2022-08-08T07:07:50.645Z,6.12
2022-08-08T07:08:51.387Z,6.29
2022-08-08T07:09:56.655Z,5.37
2022-08-08T07:10:51.416Z,6.25
2022-08-08T07:11:51.727Z,5.56
2022-08-08T07:12:50.694Z,5.95
2022-08-08T07:14:00.478Z,6.54
2022-08-08T07:14:51.619Z,5.40
2022-08-08T07:16:05.162Z,6.27
2022-08-08T07:16:53.844Z,5.59
2022-08-08T07:18:02.030Z,5.65
2022-08-08T07:18:50.678Z,5.08
2022-08-08T07:19:50.669Z,5.77
2022-08-08T07:20:51.633Z,5.45
2022-08-08T07:21:50.677Z,5.60
2022-08-08T07:22:50.678Z,5.71
2022-08-08T07:24:01.672Z,5.62
2022-08-08T07:24:50.711Z,5.18
2022-08-08T07:25:54.758Z,4.73
2022-08-08T07:26:52.926Z,5.66
2022-08-08T07:28:02.759Z,5.30
2022-08-08T07:28:50.713Z,5.56
2022-08-08T07:30:01.726Z,5.39
2022-08-08T07:30:55.405Z,5.97
2022-08-08T07:31:50.697Z,5.18
2022-08-08T07:32:50.712Z,5.68
2022-08-08T07:33:53.491Z,5.50
2022-08-08T07:35:00.738Z,5.11
2022-08-08T07:35:51.308Z,5.24
2022-08-08T07:36:50.796Z,5.30
2022-08-08T07:38:53.286Z,5.23
2022-08-08T07:39:55.978Z,5.23
2022-08-08T07:40:50.801Z,4.84
2022-08-08T07:42:03.502Z,5.19
2022-08-08T07:42:50.731Z,4.97
2022-08-08T07:43:53.567Z,5.55
2022-08-08T07:44:51.275Z,5.78
2022-08-08T07:46:04.913Z,5.41
2022-08-08T07:46:50.763Z,5.53
2022-08-08T07:47:51.715Z,5.39
2022-08-08T07:48:50.752Z,5.07
2022-08-08T07:49:50.763Z,5.29
2022-08-08T07:50:50.755Z,5.28
2022-08-08T07:51:53.439Z,7.03
2022-08-08T07:52:50.771Z,8.03
2022-08-08T07:54:02.167Z,6.02
2022-08-08T07:54:50.778Z,6.17
2022-08-08T07:55:50.784Z,5.42
2022-08-08T07:56:50.796Z,6.10
2022-08-08T07:57:50.764Z,6.25
2022-08-08T07:58:50.793Z,5.61
2022-08-08T07:59:50.786Z,5.15
2022-08-08T08:00:50.908Z,5.74
2022-08-08T08:02:34.492Z,5.94
2022-08-08T08:02:50.808Z,5.46
2022-08-08T08:03:50.798Z,5.85
2022-08-08T08:04:52.378Z,5.35
2022-08-08T08:05:51.610Z,5.53
2022-08-08T08:06:50.799Z,5.17
2022-08-08T08:07:55.566Z,5.99
2022-08-08T08:08:52.488Z,6.08
2022-08-08T08:09:50.828Z,5.53
2022-08-08T08:10:50.839Z,4.89
2022-08-08T08:11:52.518Z,4.91
2022-08-08T08:12:50.820Z,5.00
2022-08-08T08:14:07.417Z,5.12
2022-08-08T08:14:50.809Z,5.31
2022-08-08T08:15:50.835Z,4.47
2022-08-08T08:16:51.003Z,5.26
2022-08-08T08:17:55.672Z,4.90
2022-08-08T08:18:55.498Z,5.17
2022-08-08T08:19:50.833Z,5.41
2022-08-08T08:20:50.829Z,5.38
2022-08-08T08:21:57.224Z,5.29
2022-08-08T08:22:50.853Z,4.81
2022-08-08T08:23:51.043Z,4.73
2022-08-08T08:24:50.853Z,4.55
2022-08-08T08:25:51.171Z,5.30
2022-08-08T08:26:52.994Z,4.93
2022-08-08T08:27:50.849Z,4.98
2022-08-08T08:28:50.844Z,5.46
2022-08-08T08:29:51.962Z,5.07
2022-08-08T08:30:50.869Z,4.30
2022-08-08T08:31:54.102Z,4.94
2022-08-08T08:33:50.874Z,4.86
2022-08-08T08:34:50.890Z,5.46
2022-08-08T08:36:19.424Z,4.43
2022-08-08T08:36:51.534Z,4.84
2022-08-08T08:38:50.918Z,4.68
2022-08-08T08:40:00.968Z,5.18
2022-08-08T08:40:51.463Z,5.56
2022-08-08T08:41:50.883Z,19.72
2022-08-08T08:42:50.882Z,7.37
2022-08-08T08:43:50.906Z,5.66
2022-08-08T08:44:55.782Z,5.33
2022-08-08T08:45:50.899Z,4.84
2022-08-08T08:46:58.523Z,5.05
2022-08-08T08:47:52.828Z,5.24
2022-08-08T08:48:50.929Z,4.56
2022-08-08T08:49:50.907Z,4.41
2022-08-08T08:50:52.086Z,5.08
2022-08-08T08:51:51.425Z,4.87
2022-08-08T08:52:59.479Z,5.17
2022-08-08T08:53:56.085Z,4.47
2022-08-08T08:54:50.975Z,4.82
2022-08-08T08:55:50.930Z,5.42
2022-08-08T08:56:50.945Z,4.58
2022-08-08T08:57:50.941Z,4.74
2022-08-08T08:58:50.926Z,5.09
2022-08-08T09:00:01.769Z,4.86
2022-08-08T09:01:08.958Z,4.37
2022-08-08T09:01:51.042Z,4.98
2022-08-08T09:02:50.943Z,4.01
2022-08-08T09:03:51.464Z,4.62
2022-08-08T09:04:52.561Z,4.07
2022-08-08T09:05:54.504Z,4.20
2022-08-08T09:06:51.563Z,4.69
2022-08-08T09:07:52.120Z,4.89
2022-08-08T09:08:52.163Z,3.38
2022-08-08T09:09:55.295Z,3.83
2022-08-08T09:10:51.176Z,4.13
2022-08-08T09:12:50.969Z,3.93
2022-08-08T09:13:50.973Z,4.40
2022-08-08T09:14:51.505Z,3.83
2022-08-08T09:15:50.985Z,4.16
2022-08-08T09:16:50.982Z,3.87
2022-08-08T09:17:55.862Z,4.30
2022-08-08T09:18:51.003Z,4.13
2022-08-08T09:21:57.051Z,4.39
2022-08-08T09:22:02.630Z,4.17
2022-08-08T09:22:06.097Z,4.33
2022-08-08T09:22:54.142Z,4.63
2022-08-08T09:23:51.034Z,4.24
2022-08-08T09:24:51.014Z,4.23
2022-08-08T09:25:57.750Z,3.86
2022-08-08T09:26:51.585Z,3.88
2022-08-08T09:27:57.465Z,4.04
2022-08-08T09:28:51.017Z,4.40
2022-08-08T09:29:52.452Z,4.32
2022-08-08T09:30:51.034Z,3.84
2022-08-08T09:31:56.436Z,4.56
2022-08-08T09:33:55.510Z,4.13
2022-08-08T09:34:14.911Z,4.28
2022-08-08T09:34:51.033Z,3.98
2022-08-08T09:35:51.047Z,4.06
2022-08-08T09:36:51.817Z,4.32
2022-08-08T09:37:58.616Z,3.77
2022-08-08T09:39:51.130Z,3.71
2022-08-08T09:40:53.985Z,4.35
2022-08-08T09:42:15.167Z,3.70
2022-08-08T09:42:52.042Z,3.98
2022-08-08T09:44:06.622Z,3.50
2022-08-08T09:44:51.075Z,3.69
2022-08-08T09:46:01.080Z,3.60
2022-08-08T09:46:57.770Z,3.88
2022-08-08T09:48:04.037Z,3.53
2022-08-08T09:48:51.090Z,3.45
2022-08-08T09:49:51.498Z,3.33
2022-08-08T09:50:51.096Z,3.53
2022-08-08T09:52:06.169Z,3.51
2022-08-08T09:52:57.464Z,2.96
2022-08-08T09:53:56.464Z,3.18
2022-08-08T09:54:51.085Z,3.11
2022-08-08T09:56:05.367Z,3.79
2022-08-08T09:56:51.105Z,3.32
2022-08-08T09:57:55.869Z,3.11
2022-08-08T09:58:57.839Z,3.23
2022-08-08T10:00:14.371Z,2.98
2022-08-08T10:00:56.599Z,2.98
2022-08-08T10:02:00.270Z,3.32
2022-08-08T10:02:51.102Z,3.68
2022-08-08T10:03:56.083Z,2.90
2022-08-08T10:04:51.135Z,3.24
2022-08-08T10:05:51.199Z,3.11
2022-08-08T10:06:52.913Z,3.43
2022-08-08T10:07:51.122Z,3.35
2022-08-08T10:08:51.122Z,3.38
2022-08-08T10:09:59.775Z,3.41
2022-08-08T10:10:51.600Z,3.60
2022-08-08T10:12:28.358Z,3.38
2022-08-08T10:12:53.371Z,3.09
2022-08-08T10:13:57.074Z,3.57
2022-08-08T10:16:00.289Z,3.72
2022-08-08T10:16:51.180Z,3.98
2022-08-08T10:17:56.583Z,3.33
2022-08-08T10:18:51.651Z,3.90
2022-08-08T10:19:57.776Z,3.94
2022-08-08T10:21:00.658Z,3.34
2022-08-08T10:21:51.384Z,2.98
2022-08-08T10:22:55.084Z,3.16
2022-08-08T10:23:55.557Z,3.54
2022-08-08T10:24:51.182Z,3.07
2022-08-08T10:25:57.201Z,3.45
2022-08-08T10:26:57.540Z,3.18
2022-08-08T10:27:51.172Z,3.08
2022-08-08T10:28:53.710Z,3.52
2022-08-08T10:29:58.142Z,3.05
2022-08-08T10:30:59.761Z,2.91
2022-08-08T10:31:51.175Z,3.64
2022-08-08T10:32:51.443Z,3.40
2022-08-08T10:34:19.885Z,3.42
2022-08-08T10:34:51.251Z,4.36
2022-08-08T10:36:19.879Z,3.26
2022-08-08T10:36:51.198Z,3.54
2022-08-08T10:37:51.207Z,3.74
2022-08-08T10:38:51.197Z,3.85
2022-08-08T10:39:54.428Z,3.33
2022-08-08T10:40:51.182Z,3.60
2022-08-08T10:41:58.957Z,3.70
2022-08-08T10:42:51.203Z,3.68
2022-08-08T10:44:51.219Z,3.33
2022-08-08T10:45:57.042Z,3.66
2022-08-08T10:46:51.214Z,3.21
2022-08-08T10:47:53.698Z,3.64
2022-08-08T10:48:57.013Z,3.48
2022-08-08T10:50:01.103Z,3.85
2022-08-08T10:50:51.235Z,3.86
2022-08-08T10:51:51.688Z,3.50
2022-08-08T10:52:51.477Z,3.50
2022-08-08T10:53:57.103Z,3.60
2022-08-08T10:54:51.247Z,3.31
2022-08-08T10:55:51.229Z,3.32
2022-08-08T10:56:51.264Z,3.08
2022-08-08T10:57:53.221Z,3.16
2022-08-08T10:58:54.809Z,3.46
2022-08-08T10:59:51.268Z,3.32
2022-08-08T11:01:02.203Z,3.42
2022-08-08T11:01:54.862Z,3.07
2022-08-08T11:02:51.262Z,3.70
2022-08-08T11:04:00.396Z,3.33
2022-08-08T11:04:53.364Z,3.78
2022-08-08T11:05:51.763Z,3.42
2022-08-08T11:06:51.286Z,3.73
2022-08-08T11:08:30.639Z,3.52
2022-08-08T11:08:53.558Z,3.57
2022-08-08T11:09:51.667Z,3.11
2022-08-08T11:10:51.302Z,3.58
2022-08-08T11:12:04.569Z,3.22
2022-08-08T11:13:01.983Z,3.79
2022-08-08T11:13:59.698Z,3.77
2022-08-08T11:14:51.290Z,3.91
2022-08-08T11:15:52.457Z,3.19
2022-08-08T11:16:51.298Z,3.63
2022-08-08T11:17:58.139Z,3.62
2022-08-08T11:18:51.307Z,3.97
2022-08-08T11:19:52.828Z,3.98
2022-08-08T11:20:52.225Z,3.70
2022-08-08T11:21:54.234Z,3.33
2022-08-08T11:22:51.781Z,3.31
2022-08-08T11:24:02.011Z,3.48
2022-08-08T11:24:51.323Z,4.28
2022-08-08T11:25:55.519Z,3.45
2022-08-08T11:26:56.745Z,3.01
2022-08-08T11:27:51.375Z,3.75
2022-08-08T11:28:51.341Z,3.56
2022-08-08T11:30:18.611Z,3.63
2022-08-08T11:30:52.753Z,3.47
2022-08-08T11:31:51.337Z,3.31
2022-08-08T11:32:51.340Z,3.88
2022-08-08T11:34:03.270Z,3.85
2022-08-08T11:35:09.602Z,3.90
2022-08-08T11:35:51.357Z,3.47
2022-08-08T11:36:51.345Z,3.54
2022-08-08T11:38:36.837Z,3.57
2022-08-08T11:38:54.223Z,3.59
2022-08-08T11:39:57.144Z,3.54
2022-08-08T11:40:52.396Z,3.41
2022-08-08T11:41:51.358Z,3.69
2022-08-08T11:42:51.381Z,3.39
2022-08-08T11:43:51.378Z,4.28
2022-08-08T11:44:51.387Z,3.41
2022-08-08T11:46:09.634Z,3.69
2022-08-08T11:46:54.300Z,3.92
2022-08-08T11:48:02.385Z,3.39
2022-08-08T11:48:51.384Z,3.39
2022-08-08T11:49:51.389Z,4.14
2022-08-08T11:50:52.620Z,3.34
2022-08-08T11:51:52.235Z,3.79
2022-08-08T11:52:51.404Z,3.63
2022-08-08T11:53:55.285Z,3.94
2022-08-08T11:54:51.403Z,3.78
2022-08-08T11:55:51.421Z,3.73
2022-08-08T11:56:56.575Z,3.52
2022-08-08T11:57:51.731Z,3.82
2022-08-08T11:58:52.534Z,3.26
2022-08-08T11:59:58.401Z,3.50
2022-08-08T12:00:51.422Z,3.56
2022-08-08T12:01:51.426Z,3.60
2022-08-08T12:02:52.034Z,3.61
2022-08-08T12:04:51.419Z,3.54
2022-08-08T12:05:51.435Z,3.76
2022-08-08T12:06:51.425Z,4.08
2022-08-08T12:07:51.923Z,3.79
2022-08-08T12:08:51.421Z,3.43
2022-08-08T12:09:59.826Z,3.33
2022-08-08T12:11:51.450Z,3.49
2022-08-08T12:12:51.816Z,3.63
2022-08-08T12:14:02.975Z,3.61
2022-08-08T12:14:54.930Z,3.31
2022-08-08T12:15:51.453Z,3.50
2022-08-08T12:16:51.543Z,2.94
2022-08-08T12:17:51.494Z,3.52
2022-08-08T12:18:51.478Z,3.65
2022-08-08T12:19:53.876Z,3.60
2022-08-08T12:20:53.357Z,3.80
2022-08-08T12:21:58.733Z,3.98
2022-08-08T12:22:52.630Z,3.28
2022-08-08T12:23:58.361Z,3.35
2022-08-08T12:24:56.037Z,3.68
2022-08-08T12:25:52.608Z,3.47
2022-08-08T12:26:51.484Z,3.49
2022-08-08T12:27:51.485Z,3.61
2022-08-08T12:28:51.504Z,3.57
2022-08-08T12:29:51.497Z,3.61
2022-08-08T12:30:51.505Z,3.34
2022-08-08T12:31:54.339Z,3.74
2022-08-08T12:32:51.523Z,4.02
2022-08-08T12:34:01.827Z,3.42
2022-08-08T12:34:52.847Z,3.66
2022-08-08T12:35:52.229Z,3.21
2022-08-08T12:36:51.515Z,3.46
2022-08-08T12:38:02.466Z,3.68
2022-08-08T12:38:55.144Z,3.24
2022-08-08T12:40:00.233Z,3.67
2022-08-08T12:40:56.891Z,3.60
2022-08-08T12:42:01.284Z,3.39
2022-08-08T12:42:51.541Z,3.87
2022-08-08T12:43:59.908Z,3.66
2022-08-08T12:44:51.553Z,3.45
2022-08-08T12:45:58.449Z,3.23
2022-08-08T12:46:54.074Z,3.64
2022-08-08T12:48:04.622Z,3.60
2022-08-08T12:49:20.672Z,3.66
2022-08-08T12:49:51.552Z,3.35
2022-08-08T12:50:51.550Z,2.97
2022-08-08T12:51:58.922Z,3.21
2022-08-08T12:52:51.544Z,3.47
2022-08-08T12:53:51.544Z,3.51
2022-08-08T12:54:51.560Z,3.46
2022-08-08T12:56:17.530Z,3.78
2022-08-08T12:56:51.548Z,3.81
2022-08-08T12:57:56.515Z,4.02
2022-08-08T12:58:51.592Z,4.21
2022-08-08T13:00:03.754Z,3.29
2022-08-08T13:00:52.321Z,3.76
2022-08-08T13:01:51.621Z,3.62
2022-08-08T13:02:53.270Z,3.49
2022-08-08T13:03:51.851Z,3.41
2022-08-08T13:04:51.575Z,3.68
2022-08-08T13:06:04.364Z,3.23
2022-08-08T13:06:51.644Z,4.13
2022-08-08T13:08:03.539Z,3.93
2022-08-08T13:08:53.785Z,3.23
2022-08-08T13:10:04.443Z,3.47
2022-08-08T13:10:55.461Z,3.67
2022-08-08T13:12:22.153Z,3.48
2022-08-08T13:12:51.763Z,3.62
2022-08-08T13:13:51.626Z,3.73
2022-08-08T13:14:53.466Z,3.60
2022-08-08T13:15:54.671Z,3.74
2022-08-08T13:16:51.607Z,3.85
2022-08-08T13:18:08.902Z,4.10
2022-08-08T13:18:58.357Z,3.52
2022-08-08T13:20:06.254Z,3.75
2022-08-08T13:20:51.626Z,3.42
2022-08-08T13:21:58.192Z,2.96
2022-08-08T13:23:08.088Z,3.59
2022-08-08T13:23:51.644Z,3.63
2022-08-08T13:24:51.675Z,3.86
2022-08-08T13:26:54.914Z,3.27
2022-08-08T13:27:51.647Z,3.63
2022-08-08T13:28:51.638Z,3.00
2022-08-08T13:29:51.666Z,3.02
2022-08-08T13:30:51.662Z,3.14
2022-08-08T13:31:51.642Z,3.49
2022-08-08T13:32:51.670Z,3.74
2022-08-08T13:33:54.430Z,3.00
2022-08-08T13:34:52.607Z,3.35
2022-08-08T13:35:51.681Z,3.43
2022-08-08T13:36:51.774Z,3.47
2022-08-08T13:38:06.696Z,3.37
2022-08-08T13:38:51.675Z,3.38
2022-08-08T13:39:51.680Z,3.76
2022-08-08T13:40:51.674Z,3.34
2022-08-08T13:41:58.312Z,3.43
2022-08-08T13:42:51.685Z,4.14
2022-08-08T13:43:51.759Z,3.40
2022-08-08T13:44:51.685Z,3.40
2022-08-08T13:45:51.682Z,3.47
2022-08-08T13:46:51.697Z,3.56
2022-08-08T13:47:55.498Z,3.15
2022-08-08T13:49:11.843Z,2.96
2022-08-08T13:50:37.849Z,3.27
2022-08-08T13:51:51.703Z,3.32
2022-08-08T13:52:51.728Z,3.52
2022-08-08T13:53:59.911Z,4.17
2022-08-08T13:54:51.730Z,3.51
2022-08-08T13:55:51.711Z,3.48